Coniston, Canada
Current Conditions -  °F | °C
As of 5:00 AM on Thursday 29 Jan 2015 (Local Time) from CYSB Reporting Station
Light Snow Light Snow  
Wind Chill: -17°   Ceiling: 3600
Heat Index: -9°   Visibility: 15mi
Dew Point: -11°   Wind: 13mph
Humidity: 86%   Direction: 140°SE
Pressure: 29.95"   Gusts: NA
Location:  46.49°N, 80.85°W
Report Text: CYSB 291000Z 14011KT 15SM -SN FEW025 BKN036 OVC053 M09/M11 A2995 RMK SC2SC3SC3 SLP167
Loading
Personal Weather Stations






























Interactive Weather Map New forecast layout! Learn more

10-Day Weather Forecast

Advertisements
Track Severe Weather on mobile